Latest Weather Observations for Garden Island

IDW60801

Issued at 12:12 pm WST Tuesday 28 May 2024 (issued every 10 minutes, with the page automatically refreshed every 10 minutes)

About weather observations | Map of weather stations | Latest weather observations for WA | Other Formats
Station Details ID: 009256 Name: GARDEN ISLAND HSF Lat: -32.24 Lon: 115.68 Height: 6.0 m
Data from the previous 72 hours. | See also: Recent months at Garden Island
Date/Time
WST
Temp
°C
App
Temp
°C
Dew
Point
°C
Rel
Hum
%
Delta-T
°C
Wind Press
QNH
hPa
Press
MSL
hPa
Rain since
9am
mm
Dir  Spd
km/h
Gust
km/h
Spd
kts
Gust
kts
28/12:00pm 18.0 17.8 16.7 92 0.8 NNE 13 19 7 10 1011.8 1011.8 4.2
28/11:30am 17.0 18.4 14.3 84 1.5 CALM 0 0 0 0 1012.4 1012.4 4.2
28/11:00am 16.8 17.1 16.0 95 0.5 W 9 15 5 8 1013.2 1013.2 4.2
28/10:30am 16.2 15.2 15.6 96 0.3 WNW 15 20 8 11 1013.6 1013.6 4.2
28/10:00am 16.3 16.2 16.0 98 0.2 N 11 15 6 8 1013.6 1013.6 3.4
28/09:30am 15.6 15.6 15.1 97 0.3 NNE 9 13 5 7 1013.8 1013.8 3.4
28/09:00am 16.5 15.8 15.4 93 0.6 NE 13 20 7 11 1013.8 1013.8 16.2
28/08:30am 16.1 14.2 15.1 94 0.6 NNE 19 24 10 13 1013.7 1013.7 16.0
28/08:00am 15.5 13.9 15.0 97 0.3 NNE 17 24 9 13 1013.5 1013.5 16.0
28/07:30am 14.7 14.3 14.2 97 0.3 ESE 9 13 5 7 1014.0 1014.0 16.0
28/07:00am 14.9 14.2 14.4 97 0.3 ESE 11 15 6 8 1014.0 1014.0 15.8
28/06:30am 15.0 14.0 14.5 97 0.3 ESE 13 15 7 8 1013.8 1013.8 15.8
28/06:00am 14.9 14.6 14.3 96 0.3 ESE 9 13 5 7 1013.8 1013.8 15.4
28/05:30am 14.6 13.8 14.0 96 0.3 ESE 11 13 6 7 1013.8 1013.8 15.4
28/05:00am 15.2 14.9 14.4 95 0.5 SSE 9 13 5 7 1014.1 1014.1 15.4
28/04:30am 15.2 14.8 14.2 94 0.6 SSE 9 11 5 6 1014.2 1014.2 15.4
28/04:00am 16.0 15.0 14.7 92 0.7 SSE 13 19 7 10 1014.3 1014.3 15.2
28/03:30am 15.0 15.8 14.7 98 0.2 ESE 4 9 2 5 1014.3 1014.3 15.2
28/03:00am 14.1 13.9 13.6 97 0.3 ESE 7 11 4 6 1014.5 1014.5 15.2
28/02:30am 14.2 14.0 13.6 96 0.3 ESE 7 11 4 6 1014.8 1014.8 15.2
28/02:00am 14.7 13.9 14.1 96 0.3 ESE 11 15 6 8 1015.0 1015.0 15.0
28/01:30am 14.9 13.8 14.3 96 0.3 ESE 13 17 7 9 1015.1 1015.1 15.0
28/01:00am 15.4 14.0 14.6 95 0.5 SE 15 20 8 11 1015.5 1015.5 15.0
28/12:30am 15.9 13.0 15.1 95 0.5 SE 24 28 13 15 1015.6 1015.6 15.0
28/12:00am 15.8 14.0 15.5 98 0.2 SE 19 22 10 12 1015.9 1015.9 15.0
 
Date/Time
WST
Temp
°C
App
Temp
°C
Dew
Point
°C
Rel
Hum
%
Delta-T
°C
Wind Press
QNH
hPa
Press
MSL
hPa
Rain since
9am
mm
Dir  Spd
km/h
Gust
km/h
Spd
kts
Gust
kts
27/11:30pm 15.9 14.5 15.6 98 0.2 SE 17 20 9 11 1016.2 1016.2 15.0
27/11:00pm 16.1 12.6 15.6 97 0.3 SSE 28 35 15 19 1016.5 1016.5 15.0
27/10:30pm 16.3 14.7 16.0 98 0.2 SSE 19 24 10 13 1016.7 1016.7 14.6
27/10:00pm 16.8 16.0 16.2 96 0.4 SSE 15 24 8 13 1016.7 1016.7 14.4
27/09:30pm 16.9 16.7 15.8 93 0.6 SSE 11 13 6 7 1016.6 1016.6 14.2
27/09:00pm 16.7 16.2 15.9 95 0.5 SE 13 15 7 8 1016.6 1016.6 14.2
27/08:30pm 16.9 16.0 15.8 93 0.6 SE 15 20 8 11 1016.8 1016.8 14.2
27/08:00pm 17.5 16.1 16.5 94 0.6 SSE 19 24 10 13 1016.7 1016.7 14.2
27/07:30pm 18.0 15.7 16.7 92 0.8 SSE 24 28 13 15 1016.7 1016.7 14.2
27/07:00pm 18.4 15.0 16.7 90 1.0 S 30 35 16 19 1016.7 1016.7 14.2
27/06:30pm 19.1 17.2 17.6 91 0.9 WSW 24 33 13 18 1016.4 1016.4 14.0
27/06:21pm 18.0 18.2 16.7 92 0.8 NNW 11 37 6 20 1016.4 1016.4 14.0
27/06:00pm 17.9 20.5 17.4 97 0.3 CALM 0 0 0 0 1016.3 1016.3 14.0
27/05:30pm 18.2 20.1 17.7 97 0.3 NNW 4 13 2 7 1016.3 1016.3 14.0
27/05:00pm 18.5 21.2 17.7 95 0.5 CALM 0 0 0 0 1016.4 1016.4 14.0
27/04:30pm 18.8 19.5 18.0 95 0.5 NNW 11 19 6 10 1016.7 1016.7 13.6
27/04:00pm 19.0 19.7 18.0 94 0.6 N 11 15 6 8 1016.5 1016.5 12.2
27/03:30pm 18.7 19.2 18.4 98 0.2 N 13 20 7 11 1016.7 1016.7 12.2
27/03:00pm 18.4 16.9 16.7 90 1.0 WNW 20 32 11 17 1017.0 1017.0 11.2
27/02:30pm 21.7 20.5 18.5 82 2.0 N 22 35 12 19 1016.7 1016.7 9.4
27/02:00pm 21.1 19.6 18.5 85 1.6 N 24 33 13 18 1017.1 1017.1 9.4
27/01:30pm 20.4 18.7 18.2 87 1.4 N 24 33 13 18 1017.4 1017.4 9.4
27/01:00pm 19.6 18.8 17.9 90 1.0 N 19 28 10 15 1017.9 1017.9 9.4
27/12:30pm 19.5 19.2 18.3 93 0.7 N 17 24 9 13 1018.3 1018.3 9.4
27/12:00pm 19.4 19.3 18.7 96 0.4 N 17 24 9 13 1018.8 1018.8 9.4
27/11:30am 18.0 17.9 17.8 99 0.1 NNE 15 22 8 12 1019.4 1019.4 9.4
27/11:00am 17.8 20.4 17.6 99 0.1 CALM 0 0 0 0 1019.8 1019.8 7.8
27/10:30am 17.6 18.8 17.4 99 0.1 N 7 11 4 6 1020.1 1020.1 6.8
27/10:00am 17.0 17.2 16.7 98 0.2 N 11 20 6 11 1020.5 1020.5 4.8
27/09:30am 18.2 18.9 17.9 98 0.2 WSW 11 15 6 8 1020.2 1020.2 2.0
27/09:00am 18.0 17.1 17.7 98 0.2 N 19 24 10 13 1020.1 1020.1 3.2
27/08:30am 17.8 17.5 17.3 97 0.3 N 15 20 8 11 1020.0 1020.0 3.2
27/08:00am 17.7 17.1 16.6 93 0.7 NNE 15 20 8 11 1019.9 1019.9 2.6
27/07:30am 17.4 16.4 16.6 95 0.5 NNE 17 22 9 12 1019.9 1019.9 2.6
27/07:00am 17.5 17.1 16.2 92 0.8 N 13 19 7 10 1019.5 1019.5 2.6
27/06:30am 16.9 16.7 16.6 98 0.2 NNE 13 17 7 9 1019.5 1019.5 2.6
27/06:00am 17.1 17.2 16.6 97 0.3 NE 11 13 6 7 1019.5 1019.5 2.6
27/05:30am 17.3 16.8 16.8 97 0.3 NE 15 20 8 11 1019.4 1019.4 2.6
27/05:00am 17.3 17.1 16.7 96 0.4 NE 13 17 7 9 1019.4 1019.4 2.6
27/04:30am 17.5 17.8 16.9 96 0.4 NE 11 15 6 8 1019.5 1019.5 2.6
27/04:00am 18.0 17.4 16.7 92 0.8 NNW 15 24 8 13 1019.8 1019.8 2.6
27/03:30am 19.1 19.0 16.1 83 1.8 WSW 11 15 6 8 1019.6 1019.6 2.6
27/03:00am 18.7 17.3 17.0 90 1.0 SW 20 26 11 14 1019.9 1019.9 2.6
27/02:30am 18.5 17.4 17.3 93 0.7 SW 19 26 10 14 1020.1 1020.1 2.6
27/02:00am 18.2 17.8 18.0 99 0.1 NW 17 35 9 19 1020.2 1020.2 2.6
27/01:30am 17.4 17.9 17.4 100 0.0 NNE 11 13 6 7 1020.2 1020.2 2.6
27/01:00am 17.1 17.8 17.1 100 0.0 NNE 9 13 5 7 1020.3 1020.3 2.6
27/12:30am 17.2 16.8 17.2 100 0.0 NNE 15 19 8 10 1020.4 1020.4 2.6
27/12:00am 16.9 17.1 16.7 99 0.1 NNE 11 13 6 7 1020.7 1020.7 2.6
 
Date/Time
WST
Temp
°C
App
Temp
°C
Dew
Point
°C
Rel
Hum
%
Delta-T
°C
Wind Press
QNH
hPa
Press
MSL
hPa
Rain since
9am
mm
Dir  Spd
km/h
Gust
km/h
Spd
kts
Gust
kts
26/11:30pm 17.3 17.3 17.1 99 0.1 NNE 13 15 7 8 1020.8 1020.8 2.6
26/11:00pm 17.4 17.4 17.2 99 0.1 NNE 13 17 7 9 1021.0 1021.0 2.6
26/10:30pm 17.4 17.4 17.2 99 0.1 NNE 13 15 7 8 1021.3 1021.3 2.4
26/10:00pm 17.3 17.3 17.1 99 0.1 NNE 13 17 7 9 1021.4 1021.4 2.4
26/09:30pm 17.5 17.5 17.3 99 0.1 NNE 13 15 7 8 1021.5 1021.5 2.4
26/09:00pm 17.5 17.5 17.3 99 0.1 NNE 13 15 7 8 1021.7 1021.7 2.4
26/08:30pm 16.9 16.7 16.6 98 0.2 NNE 13 15 7 8 1021.8 1021.8 2.4
26/08:00pm 17.1 17.3 16.8 98 0.2 NNE 11 13 6 7 1021.7 1021.7 2.4
26/07:30pm 17.2 17.4 16.7 97 0.3 NNE 11 13 6 7 1021.5 1021.5 2.4
26/07:00pm 17.6 17.2 17.1 97 0.3 NNE 15 17 8 9 1021.3 1021.3 2.4
26/06:30pm 17.9 18.0 17.4 97 0.3 NNE 13 17 7 9 1021.2 1021.2 2.4
26/06:00pm 18.1 18.7 17.6 97 0.3 NNE 11 13 6 7 1020.9 1020.9 2.4
26/05:30pm 18.2 18.8 17.6 96 0.4 NNE 11 13 6 7 1020.8 1020.8 2.4
26/05:00pm 18.5 19.6 17.9 96 0.4 NW 9 15 5 8 1021.2 1021.2 2.4
26/04:30pm 18.2 19.1 17.6 96 0.4 WSW 9 13 5 7 1021.1 1021.1 2.4
26/04:00pm 19.3 21.5 17.4 89 1.2 N 2 9 1 5 1021.0 1021.0 0.8
26/03:30pm 19.4 20.2 18.1 92 0.8 N 11 15 6 8 1020.9 1020.9 0.8
26/03:00pm 18.8 19.3 17.5 92 0.8 NNW 11 13 6 7 1020.8 1020.8 0.8
26/02:30pm 18.7 17.7 17.5 93 0.7 NW 19 24 10 13 1020.9 1020.9 0.8
26/02:00pm 19.3 18.4 17.8 91 0.9 W 19 30 10 16 1021.0 1021.0 0.8
26/01:30pm 18.7 16.5 17.9 95 0.5 WNW 26 35 14 19 1021.1 1021.1 0.6
26/01:00pm 19.8 18.3 16.8 83 1.8 WNW 20 28 11 15 1021.3 1021.3 0.4
26/12:30pm 22.7 20.5 17.8 74 3.0 NNW 26 32 14 17 1021.3 1021.3 0.0
26/12:00pm 22.4 20.4 17.3 73 3.1 NNW 24 33 13 18 1021.6 1021.6 0.0
26/11:30am 21.7 19.1 16.9 74 2.9 N 26 32 14 17 1021.9 1021.9 0.0
26/11:00am 21.1 18.4 16.5 75 2.8 N 26 35 14 19 1022.3 1022.3 0.0
26/10:30am 21.0 18.5 17.0 78 2.4 N 26 35 14 19 1022.5 1022.5 0.0
26/10:00am 20.3 19.0 16.9 81 2.1 NNE 19 26 10 14 1022.7 1022.7 0.0
26/09:30am 19.4 17.8 16.4 83 1.8 N 20 30 11 16 1022.8 1022.8 0.0
26/09:00am 18.6 16.0 15.8 84 1.7 NNE 24 32 13 17 1022.7 1022.7 6.0
26/08:30am 18.0 15.3 15.6 86 1.4 NNE 24 30 13 16 1022.6 1022.6 6.0
26/08:00am 17.3 15.3 15.5 89 1.0 NNE 20 28 11 15 1022.5 1022.5 6.0
26/07:30am 16.6 14.5 15.3 92 0.8 NNE 20 24 11 13 1022.2 1022.2 6.0
26/07:00am 16.4 14.5 15.1 92 0.7 NNE 19 26 10 14 1022.1 1022.1 6.0
26/06:30am 16.5 14.4 15.2 92 0.8 NNE 20 26 11 14 1021.9 1021.9 6.0
26/06:00am 16.5 15.1 15.5 94 0.6 NNE 17 20 9 11 1021.7 1021.7 6.0
26/05:30am 16.5 15.9 15.7 95 0.5 NNE 13 17 7 9 1021.7 1021.7 6.0
26/05:00am 16.3 15.3 15.5 95 0.5 NNE 15 19 8 10 1021.3 1021.3 6.0
26/04:30am 16.4 16.0 16.1 98 0.2 NE 13 17 7 9 1021.2 1021.2 6.0
26/04:00am 16.3 15.8 15.8 97 0.3 NE 13 15 7 8 1021.2 1021.2 6.0
26/03:30am 16.2 15.7 15.9 98 0.2 NE 13 17 7 9 1021.0 1021.0 6.0
26/03:00am 15.9 15.7 15.6 98 0.2 NNE 11 13 6 7 1021.1 1021.1 6.0
26/02:30am 16.2 16.0 15.7 97 0.3 NNE 11 13 6 7 1021.0 1021.0 6.0
26/02:00am 16.3 16.1 15.8 97 0.3 NE 11 15 6 8 1020.8 1020.8 6.0
26/01:30am 16.4 16.3 15.9 97 0.3 NE 11 13 6 7 1020.8 1020.8 6.0
26/01:00am 16.6 16.5 16.1 97 0.3 NE 11 15 6 8 1020.7 1020.7 6.0
26/12:30am 16.8 16.4 16.3 97 0.3 NNE 13 15 7 8 1020.9 1020.9 6.0
26/12:00am 16.8 16.8 16.3 97 0.3 NNE 11 13 6 7 1021.0 1021.0 6.0
 
Date/Time
WST
Temp
°C
App
Temp
°C
Dew
Point
°C
Rel
Hum
%
Delta-T
°C
Wind Press
QNH
hPa
Press
MSL
hPa
Rain since
9am
mm
Dir  Spd
km/h
Gust
km/h
Spd
kts
Gust
kts
25/11:30pm 17.1 16.9 16.6 97 0.3 NNE 13 15 7 8 1021.2 1021.2 6.0
25/11:00pm 17.5 17.1 17.2 98 0.2 NNE 15 17 8 9 1021.1 1021.1 6.0
25/10:30pm 17.6 17.6 17.1 97 0.3 NNE 13 17 7 9 1021.1 1021.1 6.0
25/10:00pm 17.7 17.3 17.1 96 0.4 NE 15 19 8 10 1021.1 1021.1 6.0
25/09:30pm 17.9 18.6 17.1 95 0.5 NE 9 13 5 7 1021.2 1021.2 6.0
25/09:00pm 17.8 18.4 16.8 94 0.6 ENE 9 13 5 7 1021.0 1021.0 6.0
25/08:30pm 18.6 19.3 17.1 91 0.9 ESE 9 13 5 7 1020.9 1020.9 6.0
25/08:00pm 18.6 19.2 16.9 90 1.0 SE 9 15 5 8 1020.8 1020.8 6.0
25/07:30pm 19.5 18.8 16.5 83 1.8 SSE 15 19 8 10 1020.5 1020.5 6.0
25/07:00pm 19.4 17.7 16.2 82 1.9 S 20 30 11 16 1020.3 1020.3 5.8
25/06:30pm 19.2 17.7 16.2 83 1.8 SSW 19 32 10 17 1020.1 1020.1 5.8
25/06:00pm 19.4 18.4 16.6 84 1.7 SSW 17 26 9 14 1019.7 1019.7 5.8
25/05:30pm 20.3 18.0 17.7 85 1.6 SSW 26 32 14 17 1019.2 1019.2 5.2
25/05:00pm 20.2 17.7 18.0 87 1.4 SW 28 32 15 17 1018.7 1018.7 5.2
25/04:30pm 19.5 17.8 17.3 87 1.3 SW 22 28 12 15 1018.3 1018.3 5.2
25/04:02pm 19.2 16.4 17.2 88 1.2 WSW 28 50 15 27 1018.3 1018.3 3.0
25/04:00pm 20.1 18.3 17.9 87 1.4 WSW 24 41 13 22 1018.3 1018.3 1.2
25/03:30pm 23.1 22.2 16.9 68 3.8 W 17 22 9 12 1017.8 1017.8 0.8
25/03:00pm 22.2 19.8 16.5 70 3.5 W 24 39 13 21 1017.6 1017.6 0.8
25/02:30pm 22.1 22.8 17.9 77 2.6 NNW 11 15 6 8 1017.3 1017.3 0.8
25/02:00pm 19.8 18.7 17.8 88 1.2 NNW 20 28 11 15 1017.2 1017.2 0.6
25/01:37pm 21.9 19.7 16.8 73 3.1 WNW 24 50 13 27 1017.1 1017.1 0.4
25/01:30pm 23.2 21.4 16.0 64 4.4 W 20 26 11 14 1017.0 1017.0 0.4
25/01:00pm 23.8 21.1 15.6 60 4.9 W 24 32 13 17 1017.1 1017.1 0.4
25/12:30pm 23.6 21.2 16.4 64 4.4 W 24 30 13 16 1017.0 1017.0 0.4

Other formats

Comma delimited format used in spreadsheet applications
http://www.bom.gov.au/fwo/IDW60801/IDW60801.95607.axf

JavaScript Object Notation format (JSON) in row-major order
http://www.bom.gov.au/fwo/IDW60801/IDW60801.95607.json

Data quality

Most of these data are generated automatically and are frequently updated. Quality checks on data are not normally performed. It is possible for incorrect values to appear. Refer to information at About Latest Weather Observations and please check the disclaimer before using these data.